Rouvroy, Belgium
Current Conditions -  °F | °C
As of 7:20 AM on Friday 31 Oct 2014 (Local Time) from ELLX Reporting Station
Light Fog Light Fog  
Wind Chill: 48°   Ceiling: Unl
Heat Index: 48°   Visibility: 1.1mi
Dew Point: 48°   Wind: 1mph
Humidity: 100%   Direction: NA
Pressure: 30.24"   Gusts: NA
Location:  49.54°N, 5.49°E
Report Text: ELLX 310620Z VRB01KT 1800 R24/0225V0500U MIFG NSC 09/09 Q1024 NOSIG
Loading
Personal Weather Stations






























Interactive Weather Map
Tropical Storm Tracking
New forecast layout! Learn more

10-Day Weather Forecast

Advertisements
Track Severe Weather on mobile